createdAt,value
2017-08-22T00:00:51.748Z,80.21
2017-08-22T00:03:24.751Z,79.93
2017-08-22T00:05:52.259Z,78.85
2017-08-22T00:08:19.656Z,78.74
2017-08-22T00:10:47.071Z,78.67
2017-08-22T00:13:14.469Z,79.17
2017-08-22T00:15:41.888Z,79.42
2017-08-22T00:18:09.436Z,79.67
2017-08-22T00:20:36.827Z,79.56
2017-08-22T00:23:04.222Z,78.58
2017-08-22T00:25:31.626Z,78.84
2017-08-22T00:27:59.023Z,79.07
2017-08-22T00:30:26.574Z,78.20
2017-08-22T00:32:53.970Z,77.69
2017-08-22T00:35:21.361Z,77.89
2017-08-22T00:37:48.766Z,77.86
2017-08-22T00:40:16.171Z,77.91
2017-08-22T00:42:43.723Z,77.19
2017-08-22T00:45:11.134Z,77.18
2017-08-22T00:47:38.531Z,76.94
2017-08-22T00:50:05.930Z,76.52
2017-08-22T00:52:33.334Z,76.73
2017-08-22T00:55:00.777Z,76.54
2017-08-22T00:57:28.181Z,76.45
2017-08-22T00:59:55.567Z,76.98
2017-08-22T01:02:23.141Z,77.40
2017-08-22T01:04:50.526Z,77.86
2017-08-22T01:07:17.922Z,77.49
2017-08-22T01:09:45.329Z,77.57
2017-08-22T01:12:12.727Z,77.50
2017-08-22T01:14:40.126Z,77.81
2017-08-22T01:17:07.530Z,77.99
2017-08-22T01:19:34.931Z,78.50
2017-08-22T01:22:02.341Z,79.02
2017-08-22T01:24:29.734Z,79.05
2017-08-22T01:26:57.131Z,79.12
2017-08-22T01:29:24.534Z,79.42
2017-08-22T01:31:51.931Z,79.66
2017-08-22T01:34:19.720Z,79.50
2017-08-22T01:36:47.119Z,79.67
2017-08-22T01:39:14.510Z,79.20
2017-08-22T01:41:41.915Z,79.30
2017-08-22T01:44:09.326Z,78.92
2017-08-22T01:46:37.050Z,78.99
2017-08-22T01:49:04.448Z,79.13
2017-08-22T01:51:31.844Z,79.13
2017-08-22T01:53:59.256Z,79.56
2017-08-22T01:56:26.659Z,79.56
2017-08-22T01:58:54.490Z,79.63
2017-08-22T02:01:21.887Z,79.50
2017-08-22T02:03:49.283Z,79.63
2017-08-22T02:06:16.683Z,80.01
2017-08-22T02:08:44.087Z,79.83
2017-08-22T02:11:11.533Z,79.73
2017-08-22T02:13:38.923Z,79.90
2017-08-22T02:16:06.323Z,80.09
2017-08-22T02:18:33.837Z,80.04
2017-08-22T02:21:01.226Z,80.22
2017-08-22T02:23:28.733Z,80.39
2017-08-22T02:25:56.132Z,80.44
2017-08-22T02:28:23.531Z,80.71
2017-08-22T02:30:50.940Z,80.56
2017-08-22T02:33:18.379Z,80.79
2017-08-22T02:35:45.816Z,80.68
2017-08-22T02:38:13.211Z,80.78
2017-08-22T02:40:40.620Z,80.97
2017-08-22T02:43:08.014Z,81.33
2017-08-22T02:45:35.410Z,81.13
2017-08-22T02:48:02.846Z,80.92
2017-08-22T02:50:30.251Z,81.08
2017-08-22T02:52:57.646Z,81.08
2017-08-22T02:55:25.054Z,81.18
2017-08-22T02:57:52.447Z,81.33
2017-08-22T03:00:19.962Z,81.19
2017-08-22T03:02:47.366Z,81.25
2017-08-22T03:05:14.755Z,81.38
2017-08-22T03:07:42.171Z,81.66
2017-08-22T03:10:09.572Z,81.79
2017-08-22T03:12:36.987Z,81.76
2017-08-22T03:15:04.379Z,81.82
2017-08-22T03:17:31.926Z,82.09
2017-08-22T03:19:59.326Z,82.32
2017-08-22T03:22:26.722Z,82.50
2017-08-22T03:24:54.130Z,82.37
2017-08-22T03:27:21.534Z,82.44
2017-08-22T03:29:48.957Z,82.71
2017-08-22T03:32:16.358Z,82.74
2017-08-22T03:34:43.763Z,82.68
2017-08-22T03:37:11.167Z,82.61
2017-08-22T03:39:38.589Z,82.12
2017-08-22T03:42:05.994Z,82.10
2017-08-22T03:44:33.398Z,81.97
2017-08-22T03:47:00.803Z,81.95
2017-08-22T03:49:28.203Z,82.09
2017-08-22T03:51:55.608Z,81.97
2017-08-22T03:54:23.150Z,81.85
2017-08-22T03:56:50.554Z,81.96
2017-08-22T03:59:17.955Z,82.19
2017-08-22T04:01:45.364Z,82.10
2017-08-22T04:04:12.767Z,82.05
2017-08-22T04:06:40.323Z,82.25
2017-08-22T04:09:07.739Z,82.24
2017-08-22T04:11:35.134Z,82.18
2017-08-22T04:14:02.527Z,82.07
2017-08-22T04:16:29.947Z,82.06
2017-08-22T04:18:57.518Z,81.85
2017-08-22T04:21:24.920Z,81.83
2017-08-22T04:23:52.319Z,81.30
2017-08-22T04:26:19.726Z,80.22
2017-08-22T04:28:47.124Z,80.18
2017-08-22T04:31:14.643Z,80.50
2017-08-22T04:33:42.052Z,80.94
2017-08-22T04:36:09.457Z,81.25
2017-08-22T04:38:36.873Z,81.10
2017-08-22T04:41:04.289Z,79.63
2017-08-22T04:43:31.703Z,79.34
2017-08-22T04:45:59.103Z,80.00
2017-08-22T04:48:26.495Z,79.65
2017-08-22T04:50:53.902Z,79.81
2017-08-22T04:53:21.295Z,80.47
2017-08-22T04:55:48.841Z,80.66
2017-08-22T04:58:16.237Z,80.99
2017-08-22T05:00:43.631Z,81.21
2017-08-22T05:03:11.038Z,81.27
2017-08-22T05:05:38.759Z,81.26
2017-08-22T05:08:06.666Z,81.39
2017-08-22T05:10:34.058Z,81.56
2017-08-22T05:13:01.455Z,81.28
2017-08-22T05:15:28.871Z,80.71
2017-08-22T05:17:56.250Z,80.86
2017-08-22T05:20:23.655Z,80.96
2017-08-22T05:22:51.059Z,80.74
2017-08-22T05:25:18.460Z,80.83
2017-08-22T05:27:45.862Z,81.05
2017-08-22T05:30:13.262Z,81.34
2017-08-22T05:32:40.667Z,81.57
2017-08-22T05:35:08.063Z,81.70
2017-08-22T05:37:35.459Z,81.91
2017-08-22T05:40:02.873Z,81.97
2017-08-22T05:42:30.267Z,82.25
2017-08-22T05:44:57.692Z,82.05
2017-08-22T05:47:25.083Z,81.44
2017-08-22T05:49:52.495Z,79.78
2017-08-22T05:52:19.906Z,79.65
2017-08-22T05:54:47.302Z,79.74
2017-08-22T05:57:15.198Z,80.07
2017-08-22T05:59:42.590Z,80.20
2017-08-22T06:02:09.986Z,80.33
2017-08-22T06:04:37.383Z,80.21
2017-08-22T06:07:04.774Z,77.59
2017-08-22T06:09:32.334Z,78.40
2017-08-22T06:11:59.718Z,78.20
2017-08-22T06:14:27.160Z,77.83
2017-08-22T06:16:54.558Z,78.43
2017-08-22T06:19:21.946Z,78.75
2017-08-22T06:21:49.363Z,79.24
2017-08-22T06:24:16.759Z,79.81
2017-08-22T06:26:44.150Z,80.24
2017-08-22T06:29:11.550Z,80.75
2017-08-22T06:31:38.954Z,81.12
2017-08-22T06:34:06.497Z,81.28
2017-08-22T06:36:33.910Z,81.59
2017-08-22T06:39:01.295Z,81.71
2017-08-22T06:41:28.714Z,81.65
2017-08-22T06:43:56.106Z,81.59
2017-08-22T06:46:23.659Z,81.66
2017-08-22T06:48:51.110Z,81.58
2017-08-22T06:51:18.500Z,78.82
2017-08-22T06:53:45.898Z,77.24
2017-08-22T06:56:13.296Z,77.24
2017-08-22T06:58:40.827Z,76.98
2017-08-22T07:01:08.223Z,74.62
2017-08-22T07:03:35.615Z,75.36
2017-08-22T07:06:03.308Z,74.37
2017-08-22T07:08:30.690Z,74.42
2017-08-22T07:10:58.095Z,75.17
2017-08-22T07:13:25.486Z,76.68
2017-08-22T07:15:52.882Z,78.36
2017-08-22T07:18:20.294Z,78.26
2017-08-22T07:20:47.689Z,77.78
2017-08-22T07:23:15.114Z,78.58
2017-08-22T07:25:42.517Z,79.25
2017-08-22T07:28:09.911Z,79.82
2017-08-22T07:30:37.314Z,80.10
2017-08-22T07:33:04.715Z,79.54
2017-08-22T07:35:32.153Z,79.09
2017-08-22T07:37:59.550Z,78.61
2017-08-22T07:40:26.947Z,77.77
2017-08-22T07:42:54.347Z,76.48
2017-08-22T07:45:21.743Z,76.63
2017-08-22T07:47:49.247Z,76.10
2017-08-22T07:50:16.630Z,73.23
2017-08-22T07:52:44.026Z,72.35
2017-08-22T07:55:11.427Z,73.51
2017-08-22T07:57:38.818Z,73.47
2017-08-22T08:00:06.218Z,69.95
2017-08-22T08:02:33.608Z,70.66
2017-08-22T08:05:00.994Z,69.57
2017-08-22T08:07:28.385Z,69.89
2017-08-22T08:09:55.797Z,70.68
2017-08-22T08:12:23.190Z,68.41
2017-08-22T08:14:50.591Z,70.89
2017-08-22T08:17:17.987Z,69.92
2017-08-22T08:19:45.491Z,70.25
2017-08-22T08:22:12.882Z,68.33
2017-08-22T08:24:40.274Z,68.90
2017-08-22T08:27:07.678Z,68.74
2017-08-22T08:29:35.070Z,66.97
2017-08-22T08:32:02.624Z,67.88
2017-08-22T08:34:30.014Z,65.14
2017-08-22T08:36:57.410Z,66.61
2017-08-22T08:39:24.810Z,66.44
2017-08-22T08:41:52.202Z,64.68
2017-08-22T08:44:19.638Z,64.65
2017-08-22T08:46:47.040Z,63.83
2017-08-22T08:49:14.436Z,65.39
2017-08-22T08:51:41.831Z,62.66
2017-08-22T08:54:09.221Z,63.84
2017-08-22T08:56:36.924Z,64.13
2017-08-22T08:59:04.320Z,62.68
2017-08-22T09:01:31.716Z,60.67
2017-08-22T09:03:59.119Z,62.75
2017-08-22T09:06:26.513Z,61.34
2017-08-22T09:08:53.967Z,58.91
2017-08-22T09:11:21.353Z,58.08
2017-08-22T09:13:48.738Z,58.47
2017-08-22T09:16:16.138Z,56.37
2017-08-22T09:18:43.534Z,57.45
2017-08-22T09:21:11.087Z,56.65
2017-08-22T09:23:38.471Z,57.42
2017-08-22T09:26:05.870Z,54.75
2017-08-22T09:28:33.270Z,57.27
2017-08-22T09:31:00.662Z,55.15
2017-08-22T09:33:28.167Z,57.15
2017-08-22T09:35:55.556Z,55.05
2017-08-22T09:38:22.949Z,53.33
2017-08-22T09:40:50.342Z,50.87
2017-08-22T09:43:17.741Z,52.21
2017-08-22T09:45:45.306Z,49.92
2017-08-22T09:48:12.706Z,52.80
2017-08-22T09:50:40.090Z,50.37
2017-08-22T09:53:07.510Z,50.75
2017-08-22T09:55:34.903Z,47.66
2017-08-22T09:58:02.351Z,47.26
2017-08-22T10:00:29.749Z,48.54
2017-08-22T10:02:57.162Z,46.51
2017-08-22T10:05:24.564Z,46.11
2017-08-22T10:07:51.966Z,47.29
2017-08-22T10:10:19.506Z,46.79
2017-08-22T10:12:46.906Z,47.19
2017-08-22T10:15:14.306Z,48.85
2017-08-22T10:17:41.703Z,45.34
2017-08-22T10:20:09.097Z,45.78
2017-08-22T10:22:36.922Z,46.70
2017-08-22T10:25:04.314Z,43.96
2017-08-22T10:27:31.707Z,40.03
2017-08-22T10:29:59.106Z,44.72
2017-08-22T10:32:26.502Z,42.19
2017-08-22T10:34:53.909Z,43.89
2017-08-22T10:37:21.298Z,41.98
2017-08-22T10:39:48.692Z,41.57
2017-08-22T10:42:16.099Z,41.69
2017-08-22T10:44:43.495Z,43.45
2017-08-22T10:47:11.007Z,37.24
2017-08-22T10:49:38.411Z,38.48
2017-08-22T10:52:05.798Z,37.66
2017-08-22T10:54:33.191Z,39.05
2017-08-22T10:57:00.586Z,43.20
2017-08-22T10:59:28.132Z,43.08
2017-08-22T11:01:55.546Z,43.44
2017-08-22T11:04:22.946Z,44.63
2017-08-22T11:06:50.356Z,42.44
2017-08-22T11:09:17.746Z,46.52
2017-08-22T11:11:45.185Z,40.01
2017-08-22T11:14:12.583Z,38.39
2017-08-22T11:16:39.978Z,44.70
2017-08-22T11:19:07.391Z,43.89
2017-08-22T11:21:34.791Z,40.60
2017-08-22T11:24:02.525Z,39.08
2017-08-22T11:26:29.923Z,39.58
2017-08-22T11:28:57.316Z,39.80
2017-08-22T11:31:24.727Z,36.92
2017-08-22T11:33:52.123Z,40.71
2017-08-22T11:36:19.674Z,40.50
2017-08-22T11:38:47.071Z,38.46
2017-08-22T11:41:14.471Z,36.04
2017-08-22T11:43:41.875Z,40.63
2017-08-22T11:46:09.270Z,41.36
2017-08-22T11:48:36.787Z,40.91
2017-08-22T11:51:04.183Z,42.82
2017-08-22T11:53:31.799Z,38.67
2017-08-22T11:55:59.203Z,39.37
2017-08-22T11:58:26.599Z,42.28
2017-08-22T12:00:54.152Z,36.31
2017-08-22T12:03:21.543Z,38.48
2017-08-22T12:05:48.939Z,38.10
2017-08-22T12:08:16.342Z,34.50
2017-08-22T12:10:43.776Z,38.80
2017-08-22T12:13:11.291Z,38.54
2017-08-22T12:15:39.159Z,33.51
2017-08-22T12:18:06.556Z,37.05
2017-08-22T12:20:33.961Z,39.64
2017-08-22T12:23:01.369Z,33.39
2017-08-22T12:25:28.925Z,34.98
2017-08-22T12:27:56.315Z,36.26
2017-08-22T12:30:23.716Z,33.25
2017-08-22T12:32:51.122Z,33.76
2017-08-22T12:35:18.523Z,34.37
2017-08-22T12:37:46.075Z,33.97
2017-08-22T12:40:13.518Z,34.02
2017-08-22T12:42:40.915Z,34.23
2017-08-22T12:45:08.336Z,33.49
2017-08-22T12:47:35.731Z,37.09
2017-08-22T12:50:03.289Z,34.87
2017-08-22T12:52:30.683Z,34.42
2017-08-22T12:54:58.085Z,34.27
2017-08-22T12:57:25.490Z,35.93
2017-08-22T12:59:52.891Z,35.37
2017-08-22T13:02:20.439Z,35.80
2017-08-22T13:04:47.834Z,34.31
2017-08-22T13:07:15.235Z,33.82
2017-08-22T13:09:42.633Z,34.63
2017-08-22T13:12:10.032Z,37.63
2017-08-22T13:14:37.574Z,33.99
2017-08-22T13:17:04.970Z,36.90
2017-08-22T13:19:32.371Z,33.63
2017-08-22T13:21:59.770Z,34.89
2017-08-22T13:24:27.167Z,32.08
2017-08-22T13:26:54.616Z,32.03
2017-08-22T13:29:22.010Z,37.11
2017-08-22T13:31:49.406Z,37.73
2017-08-22T13:34:16.811Z,36.85
2017-08-22T13:36:44.216Z,38.40
2017-08-22T13:39:11.990Z,34.45
2017-08-22T13:41:39.386Z,36.92
2017-08-22T13:44:06.782Z,36.28
2017-08-22T13:46:34.195Z,32.20
2017-08-22T13:49:01.601Z,35.39
2017-08-22T13:51:29.003Z,36.91
2017-08-22T13:53:56.399Z,34.86
2017-08-22T13:56:23.903Z,37.31
2017-08-22T13:58:51.304Z,34.75
2017-08-22T14:01:18.702Z,36.77
2017-08-22T14:03:46.156Z,38.70
2017-08-22T14:06:13.543Z,36.76
2017-08-22T14:08:40.947Z,40.31
2017-08-22T14:11:08.342Z,40.06
2017-08-22T14:13:35.762Z,39.36
2017-08-22T14:16:03.159Z,35.91
2017-08-22T14:18:30.558Z,38.22
2017-08-22T14:20:57.955Z,38.75
2017-08-22T14:23:25.354Z,36.81
2017-08-22T14:25:52.786Z,37.56
2017-08-22T14:28:20.183Z,36.73
2017-08-22T14:30:47.632Z,36.58
2017-08-22T14:33:15.034Z,37.95
2017-08-22T14:36:12.295Z,38.73
2017-08-22T14:38:39.805Z,42.24
2017-08-22T14:41:07.234Z,37.64
2017-08-22T14:43:34.679Z,37.76
2017-08-22T14:46:02.058Z,36.06
2017-08-22T14:48:29.454Z,36.14
2017-08-22T14:50:56.872Z,43.69
2017-08-22T14:53:24.262Z,42.94
2017-08-22T14:55:51.670Z,38.20
2017-08-22T14:58:19.070Z,39.63
2017-08-22T15:00:46.477Z,38.80
2017-08-22T15:03:13.874Z,36.79
2017-08-22T15:05:41.278Z,37.13
2017-08-22T15:08:08.674Z,43.26
2017-08-22T15:10:36.074Z,38.09
2017-08-22T15:13:03.470Z,40.51
2017-08-22T15:15:30.866Z,39.74
2017-08-22T15:17:58.274Z,38.50
2017-08-22T15:20:25.670Z,38.20
2017-08-22T15:22:53.075Z,40.33
2017-08-22T15:25:20.471Z,40.73
2017-08-22T15:27:47.866Z,42.19
2017-08-22T15:30:15.267Z,39.18
2017-08-22T15:32:42.674Z,36.90
2017-08-22T15:35:10.087Z,39.93
2017-08-22T15:37:37.486Z,42.15
2017-08-22T15:40:04.882Z,40.18
2017-08-22T15:42:32.295Z,39.76
2017-08-22T15:44:59.690Z,39.36
2017-08-22T15:47:27.420Z,38.01
2017-08-22T15:49:54.824Z,39.68
2017-08-22T15:52:22.215Z,41.15
2017-08-22T15:54:49.623Z,42.02
2017-08-22T15:57:17.024Z,41.69
2017-08-22T15:59:44.423Z,40.40
2017-08-22T16:02:11.822Z,40.37
2017-08-22T16:04:39.221Z,41.26
2017-08-22T16:07:06.615Z,40.76
2017-08-22T16:09:34.042Z,41.23
2017-08-22T16:12:01.432Z,40.87
2017-08-22T16:14:28.826Z,42.01
2017-08-22T16:16:56.227Z,42.83
2017-08-22T16:19:23.622Z,41.39
2017-08-22T16:21:51.175Z,42.60
2017-08-22T16:24:18.570Z,41.91
2017-08-22T16:26:45.979Z,43.06
2017-08-22T16:29:13.378Z,43.15
2017-08-22T16:31:40.774Z,45.15
2017-08-22T16:34:08.319Z,44.21
2017-08-22T16:36:35.713Z,43.42
2017-08-22T16:39:03.111Z,45.14
2017-08-22T16:41:30.526Z,44.54
2017-08-22T16:43:57.910Z,45.38
2017-08-22T16:46:25.320Z,45.33
2017-08-22T16:48:52.707Z,46.09
2017-08-22T16:51:20.106Z,47.17
2017-08-22T16:53:47.511Z,51.27
2017-08-22T16:56:14.914Z,45.27
2017-08-22T16:58:42.310Z,47.96
2017-08-22T17:01:09.712Z,48.59
2017-08-22T17:03:37.114Z,45.79
2017-08-22T17:06:04.516Z,48.54
2017-08-22T17:08:31.915Z,48.19
2017-08-22T17:10:59.314Z,50.83
2017-08-22T17:13:26.733Z,52.66
2017-08-22T17:15:54.132Z,53.15
2017-08-22T17:18:21.530Z,51.53
2017-08-22T17:20:48.934Z,55.27
2017-08-22T17:23:16.330Z,53.37
2017-08-22T17:25:43.735Z,54.75
2017-08-22T17:28:11.143Z,56.26
2017-08-22T17:30:38.691Z,55.41
2017-08-22T17:33:06.088Z,55.69
2017-08-22T17:35:33.487Z,55.98
2017-08-22T17:38:00.890Z,55.87
2017-08-22T17:40:28.283Z,55.61
2017-08-22T17:42:55.858Z,56.21
2017-08-22T17:45:23.250Z,56.27
2017-08-22T17:47:50.650Z,56.70
2017-08-22T17:50:18.054Z,54.86
2017-08-22T17:52:45.458Z,55.66
2017-08-22T17:55:13.127Z,55.80
2017-08-22T17:57:40.522Z,54.15
2017-08-22T18:00:07.919Z,52.32
2017-08-22T18:02:35.325Z,55.05
2017-08-22T18:05:02.718Z,56.97
2017-08-22T18:07:30.122Z,56.14
2017-08-22T18:09:57.518Z,58.18
2017-08-22T18:12:24.926Z,58.41
2017-08-22T18:14:52.322Z,54.29
2017-08-22T18:17:20.046Z,53.93
2017-08-22T18:19:47.439Z,54.22
2017-08-22T18:22:14.828Z,54.43
2017-08-22T18:24:42.244Z,52.79
2017-08-22T18:27:09.637Z,53.42
2017-08-22T18:29:37.048Z,54.72
2017-08-22T18:32:04.450Z,54.96
2017-08-22T18:34:32.148Z,55.23
2017-08-22T18:36:59.552Z,55.31
2017-08-22T18:39:26.946Z,55.22
2017-08-22T18:41:54.350Z,56.04
2017-08-22T18:44:21.742Z,55.44
2017-08-22T18:46:49.143Z,55.57
2017-08-22T18:49:16.555Z,56.46
2017-08-22T18:51:43.951Z,56.04
2017-08-22T18:54:11.730Z,56.32
2017-08-22T18:56:39.126Z,56.60
2017-08-22T18:59:06.522Z,56.83
2017-08-22T19:01:33.928Z,57.49
2017-08-22T19:04:01.325Z,57.08
2017-08-22T19:06:28.748Z,56.83
2017-08-22T19:08:56.143Z,57.59
2017-08-22T19:11:23.538Z,57.93
2017-08-22T19:13:50.938Z,57.75
2017-08-22T19:16:18.339Z,58.40
2017-08-22T19:18:45.851Z,58.94
2017-08-22T19:21:13.230Z,58.93
2017-08-22T19:23:40.626Z,59.17
2017-08-22T19:26:08.027Z,58.95
2017-08-22T19:28:35.427Z,59.75
2017-08-22T19:31:02.983Z,59.81
2017-08-22T19:33:30.383Z,59.87
2017-08-22T19:35:57.785Z,59.50
2017-08-22T19:38:25.182Z,60.14
2017-08-22T19:40:52.583Z,60.10
2017-08-22T19:43:20.130Z,60.07
2017-08-22T19:45:47.523Z,60.76
2017-08-22T19:48:14.925Z,60.88
2017-08-22T19:50:42.322Z,60.59
2017-08-22T19:53:09.720Z,60.67
2017-08-22T19:55:37.226Z,60.84
2017-08-22T19:58:04.622Z,61.76
2017-08-22T20:00:32.014Z,62.10
2017-08-22T20:02:59.410Z,62.39
2017-08-22T20:05:26.806Z,62.46
2017-08-22T20:07:54.358Z,62.58
2017-08-22T20:10:21.761Z,62.05
2017-08-22T20:12:49.151Z,62.71
2017-08-22T20:15:16.550Z,62.94
2017-08-22T20:17:43.947Z,63.58
2017-08-22T20:20:11.366Z,62.63
2017-08-22T20:22:38.767Z,63.14
2017-08-22T20:25:06.167Z,62.76
2017-08-22T20:27:33.575Z,63.15
2017-08-22T20:30:00.976Z,63.30
2017-08-22T20:32:28.532Z,63.23
2017-08-22T20:34:55.930Z,63.04
2017-08-22T20:37:23.326Z,63.56
2017-08-22T20:39:50.730Z,63.92
2017-08-22T20:42:18.494Z,63.31
2017-08-22T20:44:45.891Z,63.57
2017-08-22T20:47:13.711Z,63.67
2017-08-22T20:49:41.266Z,63.79
2017-08-22T20:52:08.655Z,63.68
2017-08-22T20:54:36.050Z,63.81
2017-08-22T20:57:03.453Z,64.42
2017-08-22T20:59:30.855Z,64.43
2017-08-22T21:01:58.303Z,64.85
2017-08-22T21:04:25.694Z,64.73
2017-08-22T21:06:53.087Z,65.11
2017-08-22T21:09:20.483Z,64.78
2017-08-22T21:11:47.879Z,65.32
2017-08-22T21:14:15.438Z,65.07
2017-08-22T21:16:42.835Z,65.40
2017-08-22T21:19:10.231Z,65.72
2017-08-22T21:21:37.906Z,65.95
2017-08-22T21:24:05.310Z,65.66
2017-08-22T21:26:32.851Z,66.41
2017-08-22T21:29:00.276Z,66.20
2017-08-22T21:31:27.642Z,66.21
2017-08-22T21:33:55.043Z,67.17
2017-08-22T21:36:22.439Z,66.94
2017-08-22T21:38:49.841Z,66.60
2017-08-22T21:41:17.230Z,66.95
2017-08-22T21:43:44.631Z,66.76
2017-08-22T21:46:12.029Z,67.25
2017-08-22T21:48:39.431Z,66.79
2017-08-22T21:51:06.974Z,67.24
2017-08-22T21:53:34.366Z,67.74
2017-08-22T21:56:01.766Z,67.33
2017-08-22T21:58:29.175Z,67.35
2017-08-22T22:00:56.579Z,67.70
2017-08-22T22:03:24.127Z,67.90
2017-08-22T22:05:51.527Z,68.16
2017-08-22T22:08:18.934Z,68.16
2017-08-22T22:10:46.344Z,67.81
2017-08-22T22:13:14.106Z,68.04
2017-08-22T22:15:41.526Z,68.11
2017-08-22T22:18:08.926Z,68.03
2017-08-22T22:20:36.320Z,68.81
2017-08-22T22:23:03.724Z,68.58
2017-08-22T22:25:31.127Z,69.01
2017-08-22T22:27:58.627Z,68.94
2017-08-22T22:30:26.023Z,69.14
2017-08-22T22:32:53.419Z,69.53
2017-08-22T22:35:20.815Z,69.81
2017-08-22T22:37:48.216Z,69.64
2017-08-22T22:40:15.763Z,69.51
2017-08-22T22:42:43.161Z,69.43
2017-08-22T22:45:10.551Z,69.62
2017-08-22T22:47:37.955Z,69.61
2017-08-22T22:50:05.352Z,69.74
2017-08-22T22:52:32.774Z,69.10
2017-08-22T22:55:00.170Z,69.43
2017-08-22T22:57:27.565Z,69.51
2017-08-22T22:59:54.966Z,69.15
2017-08-22T23:02:22.362Z,69.50
2017-08-22T23:04:49.866Z,69.09
2017-08-22T23:07:17.266Z,69.48
2017-08-22T23:09:44.675Z,68.85
2017-08-22T23:12:12.078Z,69.09
2017-08-22T23:14:39.471Z,69.46
2017-08-22T23:17:07.024Z,68.98
2017-08-22T23:19:34.418Z,68.84
2017-08-22T23:22:01.814Z,69.99
2017-08-22T23:24:29.218Z,68.75
2017-08-22T23:26:56.618Z,69.35
2017-08-22T23:29:24.170Z,69.73
2017-08-22T23:31:51.577Z,68.86
2017-08-22T23:34:18.977Z,69.34
2017-08-22T23:36:46.378Z,69.32
2017-08-22T23:39:14.050Z,68.92
2017-08-22T23:41:41.498Z,69.61
2017-08-22T23:44:08.906Z,69.51
2017-08-22T23:46:36.312Z,69.62
2017-08-22T23:49:03.718Z,69.75
2017-08-22T23:51:31.115Z,70.33
2017-08-22T23:53:58.871Z,69.88
2017-08-22T23:56:26.266Z,70.21
2017-08-22T23:58:53.658Z,70.25
